Williston, North Dakota
Current Conditions -  °F | °C
As of 12:30 AM on Saturday 20 Dec 2014 (Local Time) from KISN Reporting Station
Moderate Fog Moderate Fog  
Wind Chill: 13°   Ceiling: 100
Heat Index: 13°   Visibility: 0.25mi
Dew Point: 12°   Wind: 0mph
Humidity: 96%   Direction: NA
Pressure: 29.9"   Gusts: NA
Location:  48.15°N, 103.62°W
Report Text: KISN 200630Z AUTO 00000KT 1/4SM FZFG VV001 M11/M11 A2990 RMK AO2 I1000 T11061111
Loading
Personal Weather Stations






























Interactive Weather Map New forecast layout! Learn more

10-Day Weather Forecast

Advertisements
Track Severe Weather on mobile